createdAt,value
2018-04-22T00:00:50.368Z,993.90
2018-04-22T00:01:50.564Z,993.94
2018-04-22T00:02:50.732Z,993.93
2018-04-22T00:03:50.908Z,993.90
2018-04-22T00:04:51.104Z,993.87
2018-04-22T00:05:51.276Z,993.87
2018-04-22T00:06:51.464Z,993.86
2018-04-22T00:07:51.881Z,993.85
2018-04-22T00:08:51.821Z,993.84
2018-04-22T00:09:52.001Z,993.83
2018-04-22T00:10:52.182Z,993.83
2018-04-22T00:11:52.369Z,993.87
2018-04-22T00:12:52.542Z,993.87
2018-04-22T00:13:52.725Z,993.87
2018-04-22T00:14:52.912Z,993.85
2018-04-22T00:15:53.083Z,993.85
2018-04-22T00:16:53.267Z,993.82
2018-04-22T00:17:53.459Z,993.80
2018-04-22T00:18:53.632Z,993.78
2018-04-22T00:19:53.813Z,993.75
2018-04-22T00:20:54.001Z,993.74
2018-04-22T00:21:54.176Z,993.72
2018-04-22T00:22:54.346Z,993.73
2018-04-22T00:23:54.535Z,993.70
2018-04-22T00:24:54.713Z,993.68
2018-04-22T00:25:54.895Z,993.70
2018-04-22T00:26:55.081Z,993.67
2018-04-22T00:27:55.260Z,993.70
2018-04-22T00:28:55.439Z,993.66
2018-04-22T00:29:55.631Z,993.66
2018-04-22T00:30:55.807Z,993.65
2018-04-22T00:31:55.987Z,993.64
2018-04-22T00:32:56.168Z,993.62
2018-04-22T00:33:56.348Z,993.62
2018-04-22T00:34:56.532Z,993.60
2018-04-22T00:35:56.714Z,993.60
2018-04-22T00:36:56.903Z,993.61
2018-04-22T00:37:57.079Z,993.56
2018-04-22T00:38:57.258Z,993.59
2018-04-22T00:39:57.436Z,993.53
2018-04-22T00:40:57.620Z,993.52
2018-04-22T00:41:57.799Z,993.53
2018-04-22T00:42:57.976Z,993.50
2018-04-22T00:43:58.161Z,993.50
2018-04-22T00:44:58.342Z,993.48
2018-04-22T00:45:58.527Z,993.49
2018-04-22T00:46:58.702Z,993.50
2018-04-22T00:47:58.886Z,993.47
2018-04-22T00:48:59.073Z,993.43
2018-04-22T00:49:59.254Z,993.38
2018-04-22T00:50:59.430Z,993.42
2018-04-22T00:52:59.794Z,993.41
2018-04-22T00:53:59.966Z,993.39
2018-04-22T00:55:00.150Z,993.38
2018-04-22T00:56:00.335Z,993.35
2018-04-22T00:57:00.521Z,993.37
2018-04-22T00:58:00.708Z,993.40
2018-04-22T00:59:00.881Z,993.41
2018-04-22T01:00:01.060Z,993.35
2018-04-22T01:01:01.236Z,993.34
2018-04-22T01:02:01.426Z,993.32
2018-04-22T01:03:01.605Z,993.32
2018-04-22T01:04:01.791Z,993.31
2018-04-22T01:05:01.973Z,993.30
2018-04-22T01:06:02.150Z,993.31
2018-04-22T01:07:02.335Z,993.26
2018-04-22T01:08:02.511Z,993.26
2018-04-22T01:09:02.695Z,993.28
2018-04-22T01:10:02.872Z,993.27
2018-04-22T01:11:03.056Z,993.25
2018-04-22T01:12:03.243Z,993.21
2018-04-22T01:13:03.423Z,993.21
2018-04-22T01:14:03.602Z,993.19
2018-04-22T01:15:03.781Z,993.17
2018-04-22T01:16:04.315Z,993.17
2018-04-22T01:17:04.141Z,993.18
2018-04-22T01:18:04.326Z,993.16
2018-04-22T01:19:04.512Z,993.13
2018-04-22T01:20:04.706Z,993.11
2018-04-22T01:21:04.871Z,993.18
2018-04-22T01:22:05.051Z,993.12
2018-04-22T01:23:05.234Z,993.12
2018-04-22T01:24:05.412Z,993.16
2018-04-22T01:25:05.607Z,993.16
2018-04-22T01:26:05.786Z,993.18
2018-04-22T01:27:05.958Z,993.17
2018-04-22T01:28:06.138Z,993.18
2018-04-22T01:29:06.319Z,993.15
2018-04-22T01:30:06.507Z,993.15
2018-04-22T01:31:06.687Z,993.15
2018-04-22T01:32:06.868Z,993.17
2018-04-22T01:33:07.059Z,993.16
2018-04-22T01:34:07.239Z,993.17
2018-04-22T01:35:07.422Z,993.21
2018-04-22T01:37:07.790Z,993.17
2018-04-22T01:38:07.955Z,993.13
2018-04-22T01:39:08.138Z,993.16
2018-04-22T01:40:08.323Z,993.17
2018-04-22T01:41:08.501Z,993.16
2018-04-22T01:42:08.684Z,993.14
2018-04-22T01:43:08.865Z,993.13
2018-04-22T01:44:09.043Z,993.12
2018-04-22T01:45:09.231Z,993.08
2018-04-22T01:46:09.408Z,993.10
2018-04-22T01:47:09.594Z,993.11
2018-04-22T01:48:09.768Z,993.07
2018-04-22T01:49:09.947Z,993.09
2018-04-22T01:50:10.133Z,993.10
2018-04-22T01:51:10.310Z,993.10
2018-04-22T01:52:10.491Z,993.10
2018-04-22T01:53:10.674Z,993.09
2018-04-22T01:54:10.855Z,993.09
2018-04-22T01:55:11.035Z,993.09
2018-04-22T01:56:11.213Z,993.08
2018-04-22T01:57:11.395Z,993.13
2018-04-22T01:58:11.574Z,993.09
2018-04-22T01:59:11.784Z,993.11
2018-04-22T02:00:11.950Z,993.10
2018-04-22T02:01:12.110Z,993.09
2018-04-22T02:02:12.291Z,993.08
2018-04-22T02:03:12.468Z,993.08
2018-04-22T02:04:12.652Z,993.07
2018-04-22T02:05:12.847Z,993.03
2018-04-22T02:06:13.017Z,993.01
2018-04-22T02:07:13.483Z,993.01
2018-04-22T02:08:13.381Z,993.02
2018-04-22T02:09:13.570Z,993.00
2018-04-22T02:10:13.752Z,993.02
2018-04-22T02:11:13.935Z,992.98
2018-04-22T02:12:14.108Z,993.03
2018-04-22T02:13:14.297Z,992.99
2018-04-22T02:14:14.473Z,993.00
2018-04-22T02:15:14.657Z,992.96
2018-04-22T02:16:14.834Z,992.97
2018-04-22T02:17:15.027Z,992.95
2018-04-22T02:18:15.187Z,992.96
2018-04-22T02:19:15.368Z,992.96
2018-04-22T02:20:15.553Z,992.97
2018-04-22T02:21:15.725Z,992.97
2018-04-22T02:22:15.904Z,992.95
2018-04-22T02:23:16.085Z,992.90
2018-04-22T02:24:16.266Z,992.88
2018-04-22T02:25:16.441Z,992.91
2018-04-22T02:26:16.618Z,992.93
2018-04-22T02:27:16.823Z,992.86
2018-04-22T02:28:16.974Z,992.85
2018-04-22T02:29:17.154Z,992.84
2018-04-22T02:30:17.338Z,992.85
2018-04-22T02:31:17.514Z,992.83
2018-04-22T02:32:17.697Z,992.83
2018-04-22T02:33:17.877Z,992.83
2018-04-22T02:34:18.064Z,992.83
2018-04-22T02:35:18.235Z,992.85
2018-04-22T02:36:18.418Z,992.84
2018-04-22T02:37:18.602Z,992.82
2018-04-22T02:38:18.781Z,992.84
2018-04-22T02:39:18.960Z,992.85
2018-04-22T02:40:19.143Z,992.86
2018-04-22T02:41:19.331Z,992.84
2018-04-22T02:42:19.522Z,992.84
2018-04-22T02:43:19.713Z,992.82
2018-04-22T02:44:19.885Z,992.83
2018-04-22T02:45:20.060Z,992.84
2018-04-22T02:46:20.241Z,992.82
2018-04-22T02:47:20.423Z,992.83
2018-04-22T02:48:20.600Z,992.81
2018-04-22T02:49:20.782Z,992.75
2018-04-22T02:50:20.962Z,992.76
2018-04-22T02:51:21.145Z,992.75
2018-04-22T02:52:21.323Z,992.73
2018-04-22T02:53:21.504Z,992.73
2018-04-22T02:54:21.697Z,992.72
2018-04-22T02:55:22.119Z,992.70
2018-04-22T02:56:22.058Z,992.75
2018-04-22T02:57:22.250Z,992.71
2018-04-22T02:58:22.418Z,992.67
2018-04-22T02:59:22.596Z,992.66
2018-04-22T03:00:22.772Z,992.66
2018-04-22T03:01:22.959Z,992.62
2018-04-22T03:02:23.130Z,992.60
2018-04-22T03:03:23.311Z,992.56
2018-04-22T03:04:23.501Z,992.55
2018-04-22T03:05:23.673Z,992.54
2018-04-22T03:06:23.855Z,992.49
2018-04-22T03:07:24.032Z,992.48
2018-04-22T03:08:24.216Z,992.47
2018-04-22T03:09:24.406Z,992.49
2018-04-22T03:10:24.575Z,992.44
2018-04-22T03:11:24.753Z,992.44
2018-04-22T03:12:25.192Z,992.41
2018-04-22T03:13:25.112Z,992.43
2018-04-22T03:14:25.299Z,992.38
2018-04-22T03:15:25.485Z,992.38
2018-04-22T03:16:25.653Z,992.37
2018-04-22T03:17:25.843Z,992.35
2018-04-22T03:18:26.021Z,992.33
2018-04-22T03:19:26.203Z,992.31
2018-04-22T03:20:26.379Z,992.28
2018-04-22T03:21:26.564Z,992.27
2018-04-22T03:22:26.741Z,992.25
2018-04-22T03:23:26.924Z,992.22
2018-04-22T03:24:27.109Z,992.22
2018-04-22T03:25:27.524Z,992.22
2018-04-22T03:26:27.461Z,992.19
2018-04-22T03:27:27.642Z,992.19
2018-04-22T03:28:27.836Z,992.18
2018-04-22T03:29:28.012Z,992.18
2018-04-22T03:30:28.191Z,992.18
2018-04-22T03:31:28.364Z,992.15
2018-04-22T03:32:28.543Z,992.13
2018-04-22T03:33:28.728Z,992.14
2018-04-22T03:34:28.904Z,992.17
2018-04-22T03:35:29.084Z,992.16
2018-04-22T03:36:29.268Z,992.18
2018-04-22T03:37:29.449Z,992.15
2018-04-22T03:38:29.637Z,992.13
2018-04-22T03:39:29.808Z,992.17
2018-04-22T03:40:29.985Z,992.16
2018-04-22T03:41:30.176Z,992.14
2018-04-22T03:42:30.378Z,992.17
2018-04-22T03:43:30.537Z,992.16
2018-04-22T03:44:30.716Z,992.19
2018-04-22T03:45:30.896Z,992.15
2018-04-22T03:46:31.077Z,992.20
2018-04-22T03:47:31.258Z,992.23
2018-04-22T03:48:31.437Z,992.22
2018-04-22T03:49:31.617Z,992.23
2018-04-22T03:50:31.798Z,992.20
2018-04-22T03:51:31.977Z,992.21
2018-04-22T03:52:32.165Z,992.15
2018-04-22T03:53:32.341Z,992.18
2018-04-22T03:54:32.524Z,992.22
2018-04-22T03:55:32.702Z,992.20
2018-04-22T03:56:32.880Z,992.21
2018-04-22T03:57:33.067Z,992.21
2018-04-22T03:58:33.249Z,992.20
2018-04-22T03:59:33.676Z,992.22
2018-04-22T04:00:33.612Z,992.21
2018-04-22T04:01:33.784Z,992.27
2018-04-22T04:02:34.210Z,992.23
2018-04-22T04:03:34.147Z,992.23
2018-04-22T04:04:34.337Z,992.24
2018-04-22T04:05:34.506Z,992.24
2018-04-22T04:06:34.685Z,992.23
2018-04-22T04:07:34.870Z,992.22
2018-04-22T04:08:35.046Z,992.26
2018-04-22T04:09:35.298Z,992.25
2018-04-22T04:10:35.406Z,992.29
2018-04-22T04:11:35.590Z,992.25
2018-04-22T04:12:35.775Z,992.27
2018-04-22T04:13:35.947Z,992.29
2018-04-22T04:14:36.121Z,992.25
2018-04-22T04:15:36.300Z,992.23
2018-04-22T04:16:36.479Z,992.27
2018-04-22T04:17:36.663Z,992.24
2018-04-22T04:18:36.845Z,992.26
2018-04-22T04:19:37.023Z,992.22
2018-04-22T04:20:37.204Z,992.27
2018-04-22T04:21:37.397Z,992.26
2018-04-22T04:22:37.564Z,992.26
2018-04-22T04:23:37.746Z,992.27
2018-04-22T04:24:37.927Z,992.23
2018-04-22T04:25:38.106Z,992.24
2018-04-22T04:26:38.288Z,992.25
2018-04-22T04:27:38.479Z,992.21
2018-04-22T04:28:38.649Z,992.21
2018-04-22T04:29:38.832Z,992.22
2018-04-22T04:30:39.024Z,992.21
2018-04-22T04:31:39.194Z,992.22
2018-04-22T04:32:39.376Z,992.19
2018-04-22T04:33:39.553Z,992.22
2018-04-22T04:34:39.743Z,992.24
2018-04-22T04:35:39.921Z,992.25
2018-04-22T04:36:40.103Z,992.28
2018-04-22T04:37:40.284Z,992.27
2018-04-22T04:38:40.461Z,992.24
2018-04-22T04:39:40.647Z,992.24
2018-04-22T04:40:40.825Z,992.27
2018-04-22T04:41:41.019Z,992.29
2018-04-22T04:42:41.196Z,992.28
2018-04-22T04:43:41.387Z,992.31
2018-04-22T04:44:41.562Z,992.22
2018-04-22T04:45:41.740Z,992.25
2018-04-22T04:46:41.921Z,992.23
2018-04-22T04:47:42.101Z,992.20
2018-04-22T04:48:42.280Z,992.20
2018-04-22T04:49:42.462Z,992.24
2018-04-22T04:50:42.647Z,992.25
2018-04-22T04:51:42.833Z,992.25
2018-04-22T04:52:43.012Z,992.27
2018-04-22T04:53:43.186Z,992.27
2018-04-22T04:54:43.371Z,992.29
2018-04-22T04:55:43.563Z,992.25
2018-04-22T04:56:43.735Z,992.27
2018-04-22T04:57:43.922Z,992.26
2018-04-22T04:58:44.106Z,992.34
2018-04-22T04:59:44.284Z,992.31
2018-04-22T05:00:44.462Z,992.30
2018-04-22T05:01:44.647Z,992.35
2018-04-22T05:02:44.825Z,992.34
2018-04-22T05:03:45.009Z,992.34
2018-04-22T05:04:45.190Z,992.36
2018-04-22T05:05:45.376Z,992.34
2018-04-22T05:06:45.559Z,992.36
2018-04-22T05:07:45.734Z,992.35
2018-04-22T05:08:45.915Z,992.33
2018-04-22T05:09:46.097Z,992.35
2018-04-22T05:10:46.280Z,992.34
2018-04-22T05:11:46.461Z,992.33
2018-04-22T05:12:46.647Z,992.34
2018-04-22T05:13:46.832Z,992.32
2018-04-22T05:14:47.008Z,992.34
2018-04-22T05:15:47.187Z,992.32
2018-04-22T05:16:47.370Z,992.37
2018-04-22T05:17:47.793Z,992.36
2018-04-22T05:18:47.771Z,992.38
2018-04-22T05:19:47.920Z,992.36
2018-04-22T05:20:48.109Z,992.37
2018-04-22T05:21:48.295Z,992.33
2018-04-22T05:22:48.476Z,992.35
2018-04-22T05:23:48.654Z,992.37
2018-04-22T05:24:48.836Z,992.42
2018-04-22T05:25:49.022Z,992.38
2018-04-22T05:26:49.214Z,992.43
2018-04-22T05:27:49.390Z,992.40
2018-04-22T05:28:49.594Z,992.42
2018-04-22T05:29:49.761Z,992.45
2018-04-22T05:30:49.947Z,992.49
2018-04-22T05:31:50.127Z,992.47
2018-04-22T05:32:50.315Z,992.48
2018-04-22T05:33:50.493Z,992.49
2018-04-22T05:34:50.689Z,992.50
2018-04-22T05:35:50.867Z,992.49
2018-04-22T05:36:51.050Z,992.54
2018-04-22T05:37:51.236Z,992.53
2018-04-22T05:38:51.416Z,992.50
2018-04-22T05:39:51.601Z,992.53
2018-04-22T05:40:51.786Z,992.47
2018-04-22T05:41:52.030Z,992.43
2018-04-22T05:42:52.153Z,992.45
2018-04-22T05:43:52.340Z,992.51
2018-04-22T05:44:52.530Z,992.49
2018-04-22T05:45:52.704Z,992.42
2018-04-22T05:46:52.888Z,992.46
2018-04-22T05:47:53.069Z,992.41
2018-04-22T05:48:53.500Z,992.45
2018-04-22T05:49:53.444Z,992.43
2018-04-22T05:50:53.617Z,992.47
2018-04-22T05:51:53.832Z,992.43
2018-04-22T05:52:53.990Z,992.41
2018-04-22T05:53:54.164Z,992.40
2018-04-22T05:54:54.348Z,992.43
2018-04-22T05:55:54.536Z,992.38
2018-04-22T05:56:54.722Z,992.32
2018-04-22T05:57:54.904Z,992.35
2018-04-22T05:58:55.090Z,992.37
2018-04-22T05:59:55.276Z,992.34
2018-04-22T06:00:55.465Z,992.34
2018-04-22T06:01:55.650Z,992.33
2018-04-22T06:02:55.834Z,992.32
2018-04-22T06:03:56.024Z,992.32
2018-04-22T06:04:56.207Z,992.31
2018-04-22T06:05:56.392Z,992.29
2018-04-22T06:06:56.577Z,992.31
2018-04-22T06:07:56.763Z,992.27
2018-04-22T06:08:56.951Z,992.31
2018-04-22T06:09:57.133Z,992.31
2018-04-22T06:10:57.320Z,992.33
2018-04-22T06:11:57.509Z,992.30
2018-04-22T06:12:57.702Z,992.30
2018-04-22T06:13:57.877Z,992.32
2018-04-22T06:14:58.058Z,992.35
2018-04-22T06:15:58.257Z,992.36
2018-04-22T06:16:58.437Z,992.38
2018-04-22T06:17:58.624Z,992.31
2018-04-22T06:18:58.804Z,992.27
2018-04-22T06:19:59.000Z,992.26
2018-04-22T06:20:59.178Z,992.22
2018-04-22T06:21:59.367Z,992.24
2018-04-22T06:22:59.803Z,992.18
2018-04-22T06:23:59.740Z,992.12
2018-04-22T06:24:59.923Z,992.15
2018-04-22T06:26:00.107Z,992.06
2018-04-22T06:27:00.292Z,992.07
2018-04-22T06:28:00.492Z,992.02
2018-04-22T06:29:03.049Z,992.07
2018-04-22T06:30:00.863Z,992.03
2018-04-22T06:31:01.039Z,992.03
2018-04-22T06:32:01.226Z,992.06
2018-04-22T06:33:01.408Z,992.07
2018-04-22T06:34:01.595Z,992.10
2018-04-22T06:35:01.782Z,992.11
2018-04-22T06:36:01.983Z,992.12
2018-04-22T06:37:02.142Z,992.16
2018-04-22T06:38:02.339Z,992.12
2018-04-22T06:39:02.588Z,992.18
2018-04-22T06:40:02.747Z,992.19
2018-04-22T06:41:02.931Z,992.23
2018-04-22T06:42:03.117Z,992.19
2018-04-22T06:43:03.354Z,992.19
2018-04-22T06:44:03.515Z,992.21
2018-04-22T06:45:03.680Z,992.19
2018-04-22T06:46:03.869Z,992.25
2018-04-22T06:47:04.043Z,992.22
2018-04-22T06:48:04.227Z,992.16
2018-04-22T06:49:04.415Z,992.18
2018-04-22T06:50:04.605Z,992.18
2018-04-22T06:51:04.785Z,992.20
2018-04-22T06:52:04.979Z,992.20
2018-04-22T06:53:05.161Z,992.12
2018-04-22T06:54:05.344Z,992.05
2018-04-22T06:55:05.551Z,992.04
2018-04-22T06:56:05.722Z,991.98
2018-04-22T06:57:05.921Z,992.00
2018-04-22T06:58:06.085Z,991.97
2018-04-22T06:59:06.286Z,991.95
2018-04-22T07:00:06.474Z,991.96
2018-04-22T07:01:06.664Z,991.93
2018-04-22T07:02:06.862Z,991.92
2018-04-22T07:03:07.040Z,991.89
2018-04-22T07:04:07.228Z,991.87
2018-04-22T07:05:07.417Z,991.89
2018-04-22T07:06:07.604Z,991.90
2018-04-22T07:07:07.784Z,991.90
2018-04-22T07:08:07.977Z,991.91
2018-04-22T07:09:08.173Z,991.89
2018-04-22T07:10:08.352Z,991.91
2018-04-22T07:11:08.531Z,991.93
2018-04-22T07:12:08.721Z,991.94
2018-04-22T07:13:08.917Z,991.90
2018-04-22T07:14:09.095Z,991.93
2018-04-22T07:15:09.284Z,991.94
2018-04-22T07:16:09.476Z,991.89
2018-04-22T07:17:09.666Z,991.88
2018-04-22T07:18:09.855Z,991.88
2018-04-22T07:19:10.045Z,991.89
2018-04-22T07:20:10.229Z,991.87
2018-04-22T07:21:10.419Z,991.88
2018-04-22T07:22:10.607Z,991.86
2018-04-22T07:23:10.799Z,991.87
2018-04-22T07:24:10.986Z,991.89
2018-04-22T07:25:11.172Z,991.90
2018-04-22T07:26:11.617Z,991.89
2018-04-22T07:27:11.546Z,991.90
2018-04-22T07:28:11.729Z,991.89
2018-04-22T07:29:11.933Z,991.86
2018-04-22T07:30:12.107Z,991.88
2018-04-22T07:31:12.308Z,991.87
2018-04-22T07:32:12.550Z,991.88
2018-04-22T07:33:12.672Z,991.89
2018-04-22T07:34:12.863Z,991.90
2018-04-22T07:35:13.052Z,991.88
2018-04-22T07:36:13.276Z,991.87
2018-04-22T07:37:13.422Z,991.88
2018-04-22T07:38:13.607Z,991.89
2018-04-22T07:39:13.786Z,991.90
2018-04-22T07:40:13.979Z,991.87
2018-04-22T07:41:14.167Z,991.84
2018-04-22T07:42:14.357Z,991.82
2018-04-22T07:43:14.546Z,991.84
2018-04-22T07:44:14.747Z,991.80
2018-04-22T07:45:14.929Z,991.84
2018-04-22T07:46:15.119Z,991.81
2018-04-22T07:47:15.570Z,991.82
2018-04-22T07:48:15.570Z,991.81
2018-04-22T07:49:15.743Z,991.80
2018-04-22T07:50:15.961Z,991.79
2018-04-22T07:51:16.137Z,991.77
2018-04-22T07:52:16.361Z,991.76
2018-04-22T07:53:16.544Z,991.76
2018-04-22T07:54:16.745Z,991.78
2018-04-22T07:55:16.923Z,991.73
2018-04-22T07:56:17.119Z,991.74
2018-04-22T07:57:17.304Z,991.71
2018-04-22T07:58:17.496Z,991.67
2018-04-22T07:59:17.686Z,991.71
2018-04-22T08:00:17.892Z,991.70
2018-04-22T08:01:18.076Z,991.69
2018-04-22T08:02:18.263Z,991.73
2018-04-22T08:03:18.467Z,991.68
2018-04-22T08:04:18.636Z,991.68
2018-04-22T08:05:18.835Z,991.72
2018-04-22T08:06:19.017Z,991.70
2018-04-22T08:07:19.206Z,991.68
2018-04-22T08:08:19.411Z,991.64
2018-04-22T08:09:19.581Z,991.65
2018-04-22T08:10:19.776Z,991.67
2018-04-22T08:11:19.959Z,991.65
2018-04-22T08:12:20.153Z,991.64
2018-04-22T08:13:20.336Z,991.62
2018-04-22T08:14:20.518Z,991.62
2018-04-22T08:15:20.706Z,991.61
2018-04-22T08:16:20.939Z,991.60
2018-04-22T08:17:21.098Z,991.57
2018-04-22T08:18:21.270Z,991.59
2018-04-22T08:19:21.454Z,991.58
2018-04-22T08:20:21.645Z,991.60
2018-04-22T08:21:21.831Z,991.57
2018-04-22T08:22:22.020Z,991.56
2018-04-22T08:23:22.209Z,991.58
2018-04-22T08:24:22.394Z,991.56
2018-04-22T08:25:22.587Z,991.56
2018-04-22T08:26:22.768Z,991.55
2018-04-22T08:27:22.953Z,991.45
2018-04-22T08:28:23.144Z,991.48
2018-04-22T08:29:23.358Z,991.45
2018-04-22T08:30:23.510Z,991.36
2018-04-22T08:31:23.697Z,991.38
2018-04-22T08:32:23.887Z,991.34
2018-04-22T08:33:24.076Z,991.35
2018-04-22T08:34:26.462Z,991.29
2018-04-22T08:35:24.634Z,991.36
2018-04-22T08:36:24.721Z,991.37
2018-04-22T08:37:24.897Z,991.37
2018-04-22T08:38:25.080Z,991.34
2018-04-22T08:39:25.268Z,991.33
2018-04-22T08:40:25.457Z,991.35
2018-04-22T08:41:25.643Z,991.30
2018-04-22T08:42:25.825Z,991.32
2018-04-22T08:43:26.016Z,991.28
2018-04-22T08:44:26.209Z,991.37
2018-04-22T08:45:26.399Z,991.32
2018-04-22T08:46:26.827Z,991.31
2018-04-22T08:47:26.772Z,991.38
2018-04-22T08:48:26.958Z,991.38
2018-04-22T08:49:27.149Z,991.38
2018-04-22T08:50:27.343Z,991.38
2018-04-22T08:51:27.526Z,991.35
2018-04-22T08:52:27.715Z,991.36
2018-04-22T08:53:27.905Z,991.36
2018-04-22T08:54:28.122Z,991.26
2018-04-22T08:55:28.293Z,991.28
2018-04-22T08:56:28.488Z,991.35
2018-04-22T08:57:28.658Z,991.35
2018-04-22T08:58:28.847Z,991.33
2018-04-22T08:59:29.037Z,991.31
2018-04-22T09:00:29.229Z,991.29
2018-04-22T09:01:29.410Z,991.29
2018-04-22T09:02:29.594Z,991.28
2018-04-22T09:03:29.780Z,991.23
2018-04-22T09:05:30.155Z,991.25
2018-04-22T09:06:30.333Z,991.28
2018-04-22T09:07:30.517Z,991.29
2018-04-22T09:08:30.718Z,991.25
2018-04-22T09:09:30.885Z,991.24
2018-04-22T09:10:31.076Z,991.25
2018-04-22T09:11:31.725Z,991.23
2018-04-22T09:12:31.450Z,991.22
2018-04-22T09:13:31.640Z,991.18
2018-04-22T09:14:31.832Z,991.19
2018-04-22T09:15:32.020Z,991.16
2018-04-22T09:16:32.208Z,991.14
2018-04-22T09:17:32.402Z,991.12
2018-04-22T09:18:32.598Z,991.14
2018-04-22T09:19:32.779Z,991.08
2018-04-22T09:20:32.968Z,991.08
2018-04-22T09:21:33.162Z,991.03
2018-04-22T09:22:33.355Z,990.99
2018-04-22T09:23:33.543Z,990.97
2018-04-22T09:24:33.748Z,990.96
2018-04-22T09:25:33.945Z,990.91
2018-04-22T09:26:34.129Z,990.98
2018-04-22T09:27:34.314Z,990.97
2018-04-22T09:28:34.503Z,990.92
2018-04-22T09:29:34.699Z,990.95
2018-04-22T09:30:34.885Z,990.96
2018-04-22T09:31:35.093Z,990.99
2018-04-22T09:32:35.271Z,990.92
2018-04-22T09:33:35.463Z,990.89
2018-04-22T09:34:35.656Z,990.85
2018-04-22T09:35:35.857Z,990.86
2018-04-22T09:36:36.040Z,990.89
2018-04-22T09:37:36.233Z,990.86
2018-04-22T09:38:36.415Z,990.85
2018-04-22T09:39:36.608Z,990.84
2018-04-22T09:40:36.802Z,990.82
2018-04-22T09:41:36.982Z,990.79
2018-04-22T09:42:37.182Z,990.77
2018-04-22T09:43:37.359Z,990.77
2018-04-22T09:44:37.543Z,990.78
2018-04-22T09:45:37.727Z,990.78
2018-04-22T09:46:37.930Z,990.76
2018-04-22T09:47:38.116Z,990.73
2018-04-22T09:48:38.299Z,990.75
2018-04-22T09:49:38.493Z,990.73
2018-04-22T09:50:38.675Z,990.70
2018-04-22T09:51:43.563Z,990.68
2018-04-22T09:52:39.052Z,990.68
2018-04-22T09:53:39.232Z,990.65
2018-04-22T09:54:39.494Z,990.63
2018-04-22T09:55:39.713Z,990.57
2018-04-22T09:56:39.853Z,990.58
2018-04-22T09:57:40.018Z,990.51
2018-04-22T09:58:40.205Z,990.55
2018-04-22T09:59:40.401Z,990.49
2018-04-22T10:00:40.607Z,990.50
2018-04-22T10:01:40.781Z,990.46
2018-04-22T10:02:40.966Z,990.43
2018-04-22T10:03:41.157Z,990.35
2018-04-22T10:04:41.343Z,990.39
2018-04-22T10:05:41.524Z,990.37
2018-04-22T10:06:41.713Z,990.32
2018-04-22T10:07:41.913Z,990.32
2018-04-22T10:08:42.091Z,990.29
2018-04-22T10:09:42.273Z,990.30
2018-04-22T10:10:42.469Z,990.30
2018-04-22T10:11:42.657Z,990.29
2018-04-22T10:12:42.855Z,990.26
2018-04-22T10:13:43.038Z,990.26
2018-04-22T10:14:43.241Z,990.24
2018-04-22T10:15:43.422Z,990.24
2018-04-22T10:16:43.610Z,990.21
2018-04-22T10:17:43.795Z,990.22
2018-04-22T10:18:44.000Z,990.14
2018-04-22T10:19:44.179Z,990.17
2018-04-22T10:20:44.364Z,990.13
2018-04-22T10:21:44.537Z,990.08
2018-04-22T10:22:44.727Z,990.13
2018-04-22T10:23:44.924Z,990.06
2018-04-22T10:24:45.126Z,990.02
2018-04-22T10:25:45.328Z,990.02
2018-04-22T10:26:45.514Z,989.98
2018-04-22T10:27:45.702Z,989.96
2018-04-22T10:28:45.860Z,989.95
2018-04-22T10:29:46.058Z,989.92
2018-04-22T10:30:46.235Z,989.92
2018-04-22T10:31:46.431Z,989.88
2018-04-22T10:32:46.612Z,989.91
2018-04-22T10:33:46.832Z,989.85
2018-04-22T10:34:47.023Z,989.85
2018-04-22T10:35:47.195Z,989.76
2018-04-22T10:36:47.370Z,989.75
2018-04-22T10:37:47.576Z,989.77
2018-04-22T10:38:47.768Z,989.73
2018-04-22T10:39:47.929Z,989.71
2018-04-22T10:40:48.124Z,989.72
2018-04-22T10:41:48.317Z,989.62
2018-04-22T10:42:48.500Z,989.65
2018-04-22T10:43:48.694Z,989.65
2018-04-22T10:44:48.878Z,989.65
2018-04-22T10:45:49.062Z,989.67
2018-04-22T10:46:49.295Z,989.64
2018-04-22T10:47:49.445Z,989.61
2018-04-22T10:48:49.662Z,989.57
2018-04-22T10:49:50.044Z,989.55
2018-04-22T10:50:50.002Z,989.54
2018-04-22T10:51:50.242Z,989.55
2018-04-22T10:52:50.371Z,989.54
2018-04-22T10:53:50.649Z,989.51
2018-04-22T10:54:50.717Z,989.49
2018-04-22T10:55:50.887Z,989.45
2018-04-22T10:56:51.076Z,989.42
2018-04-22T10:57:51.265Z,989.48
2018-04-22T10:58:51.471Z,989.40
2018-04-22T10:59:51.700Z,989.44
2018-04-22T11:00:52.093Z,989.47
2018-04-22T11:01:52.001Z,989.39
2018-04-22T11:02:52.316Z,989.45
2018-04-22T11:03:52.732Z,989.45
2018-04-22T11:04:52.531Z,989.44
2018-04-22T11:05:52.697Z,989.46
2018-04-22T11:06:52.882Z,989.39
2018-04-22T11:07:53.122Z,989.46
2018-04-22T11:08:53.483Z,989.42
2018-04-22T11:09:53.445Z,989.43
2018-04-22T11:10:53.782Z,989.44
2018-04-22T11:11:53.787Z,989.41
2018-04-22T11:12:53.960Z,989.40
2018-04-22T11:13:54.285Z,989.39
2018-04-22T11:14:54.357Z,989.37
2018-04-22T11:15:54.538Z,989.39
2018-04-22T11:16:54.702Z,989.39
2018-04-22T11:17:54.908Z,989.36
2018-04-22T11:18:55.078Z,989.34
2018-04-22T11:19:55.263Z,989.36
2018-04-22T11:20:55.450Z,989.32
2018-04-22T11:21:55.644Z,989.31
2018-04-22T11:22:55.850Z,989.28
2018-04-22T11:23:56.078Z,989.33
2018-04-22T11:24:56.202Z,989.32
2018-04-22T11:25:56.399Z,989.34
2018-04-22T11:26:56.553Z,989.31
2018-04-22T11:27:56.744Z,989.28
2018-04-22T11:28:56.905Z,989.29
2018-04-22T11:29:57.091Z,989.30
2018-04-22T11:30:57.269Z,989.27
2018-04-22T11:31:57.445Z,989.26
2018-04-22T11:32:57.634Z,989.17
2018-04-22T11:34:58.020Z,989.17
2018-04-22T11:35:58.178Z,989.18
2018-04-22T11:36:58.361Z,989.18
2018-04-22T11:37:58.527Z,989.21
2018-04-22T11:38:58.723Z,989.22
2018-04-22T11:39:58.887Z,989.19
2018-04-22T11:40:59.366Z,989.19
2018-04-22T11:41:59.261Z,989.22
2018-04-22T11:42:59.410Z,989.24
2018-04-22T11:43:59.601Z,989.23
2018-04-22T11:44:59.805Z,989.16
2018-04-22T11:46:00.027Z,989.19
2018-04-22T11:47:00.196Z,989.19
2018-04-22T11:48:00.443Z,989.20
2018-04-22T11:49:00.606Z,989.17
2018-04-22T11:50:00.787Z,989.19
2018-04-22T11:51:00.973Z,989.18
2018-04-22T11:52:01.139Z,989.13
2018-04-22T11:53:01.338Z,989.17
2018-04-22T11:54:01.517Z,989.16
2018-04-22T11:55:01.702Z,989.16
2018-04-22T11:56:01.859Z,989.15
2018-04-22T11:57:02.040Z,989.22
2018-04-22T11:58:02.267Z,989.13
2018-04-22T11:59:02.406Z,989.13
2018-04-22T12:00:02.635Z,989.17
2018-04-22T12:01:02.769Z,989.13
2018-04-22T12:02:02.939Z,989.10
2018-04-22T12:03:03.102Z,989.14
2018-04-22T12:04:03.300Z,989.07
2018-04-22T12:05:03.746Z,989.11
2018-04-22T12:06:03.677Z,989.04
2018-04-22T12:07:03.872Z,989.07
2018-04-22T12:08:04.065Z,989.02
2018-04-22T12:09:04.228Z,988.99
2018-04-22T12:10:04.384Z,989.03
2018-04-22T12:11:04.567Z,989.00
2018-04-22T12:12:04.735Z,989.00
2018-04-22T12:13:04.932Z,988.97
2018-04-22T12:14:05.089Z,988.97
2018-04-22T12:15:05.317Z,988.93
2018-04-22T12:16:05.494Z,988.97
2018-04-22T12:17:05.660Z,988.92
2018-04-22T12:18:05.845Z,988.93
2018-04-22T12:19:06.029Z,988.91
2018-04-22T12:20:06.257Z,988.92
2018-04-22T12:21:06.383Z,988.91
2018-04-22T12:22:06.559Z,988.91
2018-04-22T12:23:06.743Z,988.89
2018-04-22T12:24:06.916Z,988.84
2018-04-22T12:25:07.096Z,988.83
2018-04-22T12:26:07.262Z,988.83
2018-04-22T12:27:07.458Z,988.78
2018-04-22T12:28:07.617Z,988.78
2018-04-22T12:29:07.797Z,988.78
2018-04-22T12:30:07.991Z,988.79
2018-04-22T12:31:08.176Z,988.72
2018-04-22T12:32:08.343Z,988.73
2018-04-22T12:33:08.537Z,988.71
2018-04-22T12:34:08.710Z,988.71
2018-04-22T12:35:08.900Z,988.68